createdAt,value
2022-09-12T00:00:52.248Z,5.27
2022-09-12T00:03:19.173Z,5.83
2022-09-12T00:05:47.454Z,5.30
2022-09-12T00:08:15.065Z,5.37
2022-09-12T00:10:43.913Z,5.60
2022-09-12T00:13:11.559Z,5.60
2022-09-12T00:15:43.608Z,5.30
2022-09-12T00:18:16.092Z,7.37
2022-09-12T00:20:45.629Z,5.47
2022-09-12T00:23:13.802Z,6.00
2022-09-12T00:25:46.074Z,5.63
2022-09-12T00:28:16.525Z,5.30
2022-09-12T00:30:45.437Z,6.40
2022-09-12T00:33:13.680Z,6.07
2022-09-12T00:35:49.599Z,5.70
2022-09-12T00:38:17.386Z,6.97
2022-09-12T00:40:45.270Z,5.70
2022-09-12T00:43:30.553Z,5.43
2022-09-12T00:46:01.973Z,5.30
2022-09-12T00:49:14.439Z,4.70
2022-09-12T00:51:48.290Z,4.60
2022-09-12T00:54:21.046Z,5.37
2022-09-12T00:56:50.336Z,5.30
2022-09-12T00:59:28.718Z,6.13
2022-09-12T01:01:56.640Z,6.40
2022-09-12T01:04:27.149Z,6.40
2022-09-12T01:06:57.213Z,6.10
2022-09-12T01:09:25.702Z,5.60
2022-09-12T01:11:53.608Z,6.63
2022-09-12T01:14:21.357Z,6.53
2022-09-12T01:16:50.077Z,6.40
2022-09-12T01:19:41.881Z,6.37
2022-09-12T01:22:49.910Z,6.83
2022-09-12T01:25:38.663Z,7.00
2022-09-12T01:28:29.513Z,5.50
2022-09-12T01:31:42.757Z,5.60
2022-09-12T01:34:28.140Z,6.20
2022-09-12T01:37:29.347Z,6.20
2022-09-12T01:40:22.106Z,6.00
2022-09-12T01:43:19.992Z,6.13
2022-09-12T01:46:14.567Z,6.67
2022-09-12T01:49:02.185Z,6.40
2022-09-12T01:51:38.874Z,5.37
2022-09-12T01:54:14.162Z,5.83
2022-09-12T01:56:43.087Z,5.33
2022-09-12T01:59:20.470Z,7.03
2022-09-12T02:02:07.333Z,5.53
2022-09-12T02:04:43.725Z,6.20
2022-09-12T02:07:37.359Z,4.93
2022-09-12T02:10:20.611Z,6.67
2022-09-12T02:12:56.655Z,6.47
2022-09-12T02:15:38.608Z,5.37
2022-09-12T02:18:06.914Z,6.20
2022-09-12T02:20:48.869Z,6.00
2022-09-12T02:23:23.948Z,5.47
2022-09-12T02:26:02.258Z,6.03
2022-09-12T02:28:35.343Z,5.90
2022-09-12T02:31:32.676Z,5.90
2022-09-12T02:34:30.990Z,6.10
2022-09-12T02:37:18.343Z,6.20
2022-09-12T02:39:45.726Z,5.73
2022-09-12T02:42:13.455Z,5.67
2022-09-12T02:44:41.065Z,6.00
2022-09-12T02:47:31.126Z,5.77
2022-09-12T02:49:59.354Z,6.40
2022-09-12T02:52:28.826Z,5.83
2022-09-12T02:54:57.684Z,6.37
2022-09-12T02:57:25.253Z,6.23
2022-09-12T02:59:57.282Z,6.63
2022-09-12T03:03:04.765Z,7.30
2022-09-12T03:05:56.429Z,6.17
2022-09-12T03:08:46.858Z,5.67
2022-09-12T03:11:41.588Z,5.23
2022-09-12T03:14:41.993Z,5.60
2022-09-12T03:17:27.497Z,4.77
2022-09-12T03:20:10.868Z,5.07
2022-09-12T03:22:53.717Z,5.07
2022-09-12T03:25:50.034Z,5.97
2022-09-12T03:28:19.876Z,5.30
2022-09-12T03:30:48.973Z,4.60
2022-09-12T03:33:23.199Z,5.80
2022-09-12T03:35:50.943Z,5.80
2022-09-12T03:38:18.650Z,5.70
2022-09-12T03:40:47.784Z,5.00
2022-09-12T03:43:16.246Z,5.20
2022-09-12T03:45:43.236Z,5.53
2022-09-12T03:48:10.235Z,6.10
2022-09-12T03:50:37.235Z,5.47
2022-09-12T03:53:04.417Z,5.67
2022-09-12T03:55:31.320Z,5.33
2022-09-12T03:57:58.219Z,5.60
2022-09-12T04:00:25.211Z,5.50
2022-09-12T04:02:58.840Z,5.10
2022-09-12T04:05:26.359Z,5.57
2022-09-12T04:07:53.329Z,5.40
2022-09-12T04:10:20.300Z,6.50
2022-09-12T04:12:47.584Z,6.73
2022-09-12T04:15:14.602Z,6.80
2022-09-12T04:17:41.560Z,8.00
2022-09-12T04:20:09.121Z,6.30
2022-09-12T04:22:36.224Z,7.20
2022-09-12T04:25:03.357Z,9.07
2022-09-12T04:27:30.885Z,10.33
2022-09-12T04:29:58.473Z,7.73
2022-09-12T04:32:25.417Z,9.63
2022-09-12T04:34:52.545Z,7.73
2022-09-12T04:37:19.547Z,6.17
2022-09-12T04:39:49.086Z,6.10
2022-09-12T04:42:16.627Z,6.70
2022-09-12T04:44:43.812Z,6.73
2022-09-12T04:47:10.864Z,6.57
2022-09-12T04:49:37.769Z,5.43
2022-09-12T04:52:04.781Z,7.80
2022-09-12T04:54:31.856Z,7.03
2022-09-12T04:56:59.549Z,6.60
2022-09-12T04:59:26.866Z,6.50
2022-09-12T05:01:54.201Z,5.73
2022-09-12T05:04:21.523Z,5.60
2022-09-12T05:06:48.612Z,6.60
2022-09-12T05:09:16.434Z,5.80
2022-09-12T05:14:33.803Z,6.00
2022-09-12T05:17:01.977Z,6.20
2022-09-12T05:19:31.027Z,7.87
2022-09-12T05:21:58.952Z,7.73
2022-09-12T05:24:26.171Z,8.30
2022-09-12T05:26:53.393Z,10.37
2022-09-12T05:29:20.318Z,8.87
2022-09-12T05:31:50.084Z,7.30
2022-09-12T05:34:17.044Z,6.13
2022-09-12T05:36:43.999Z,7.30
2022-09-12T05:39:11.368Z,7.17
2022-09-12T05:41:38.729Z,9.00
2022-09-12T05:44:07.256Z,6.77
2022-09-12T05:46:40.206Z,8.10
2022-09-12T05:49:09.990Z,7.30
2022-09-12T05:51:39.701Z,7.00
2022-09-12T05:54:08.159Z,7.07
2022-09-12T05:56:39.326Z,6.57
2022-09-12T05:59:28.422Z,6.30
2022-09-12T06:01:55.466Z,5.57
2022-09-12T06:04:23.754Z,8.20
2022-09-12T06:06:51.889Z,6.57
2022-09-12T06:09:18.831Z,6.80
2022-09-12T06:11:46.668Z,4.83
2022-09-12T06:14:16.948Z,4.53
2022-09-12T06:16:44.696Z,5.83
2022-09-12T06:19:23.160Z,5.37
2022-09-12T06:21:51.465Z,5.10
2022-09-12T06:24:20.202Z,5.17
2022-09-12T06:26:48.951Z,6.07
2022-09-12T06:29:16.651Z,5.80
2022-09-12T06:31:44.287Z,5.00
2022-09-12T06:34:14.061Z,4.20
2022-09-12T06:36:44.438Z,4.20
2022-09-12T06:39:14.462Z,5.07
2022-09-12T06:41:44.279Z,5.80
2022-09-12T06:44:21.584Z,4.87
2022-09-12T06:46:49.750Z,4.83
2022-09-12T06:49:17.728Z,5.13
2022-09-12T06:51:44.852Z,4.00
2022-09-12T06:54:17.056Z,4.37
2022-09-12T06:56:44.845Z,5.30
2022-09-12T06:59:11.988Z,4.87
2022-09-12T07:01:40.118Z,5.27
2022-09-12T07:04:07.458Z,4.63
2022-09-12T07:06:41.306Z,4.43
2022-09-12T07:09:13.505Z,5.37
2022-09-12T07:11:42.259Z,5.20
2022-09-12T07:14:13.750Z,5.73
2022-09-12T07:16:41.300Z,5.83
2022-09-12T07:19:09.034Z,6.03
2022-09-12T07:21:39.849Z,4.60
2022-09-12T07:24:09.545Z,4.73
2022-09-12T07:26:37.384Z,4.97
2022-09-12T07:29:32.282Z,4.43
2022-09-12T07:31:52.505Z,4.20
2022-09-12T07:34:19.825Z,4.50
2022-09-12T07:36:47.089Z,4.20
2022-09-12T07:39:14.391Z,3.87
2022-09-12T07:41:41.854Z,4.93
2022-09-12T07:44:09.223Z,4.40
2022-09-12T07:46:36.609Z,4.20
2022-09-12T07:49:04.217Z,4.43
2022-09-12T07:51:31.975Z,4.00
2022-09-12T07:53:59.402Z,4.53
2022-09-12T07:56:30.646Z,4.60
2022-09-12T07:58:58.880Z,4.83
2022-09-12T08:01:26.769Z,4.77
2022-09-12T08:03:58.581Z,4.13
2022-09-12T08:06:27.751Z,3.97
2022-09-12T08:08:56.868Z,4.83
2022-09-12T08:11:25.995Z,3.80
2022-09-12T08:13:57.054Z,3.97
2022-09-12T08:16:26.960Z,4.80
2022-09-12T08:18:54.330Z,4.10
2022-09-12T08:21:23.780Z,3.40
2022-09-12T08:23:56.197Z,3.47
2022-09-12T08:26:24.590Z,4.80
2022-09-12T08:28:53.178Z,4.10
2022-09-12T08:31:22.394Z,4.20
2022-09-12T08:33:50.214Z,3.43
2022-09-12T08:36:23.970Z,4.30
2022-09-12T08:38:59.289Z,3.23
2022-09-12T08:41:38.291Z,3.77
2022-09-12T08:44:26.907Z,3.53
2022-09-12T08:47:27.556Z,2.80
2022-09-12T08:50:09.615Z,2.50
2022-09-12T08:53:03.604Z,2.50
2022-09-12T08:55:59.276Z,2.07
2022-09-12T08:58:29.046Z,2.27
2022-09-12T09:01:22.362Z,1.60
2022-09-12T09:04:25.756Z,2.50
2022-09-12T09:07:28.889Z,2.40
2022-09-12T09:10:09.170Z,2.20
2022-09-12T09:13:38.255Z,1.93
2022-09-12T09:16:26.127Z,3.00
2022-09-12T09:18:54.788Z,2.03
2022-09-12T09:21:26.668Z,2.23
2022-09-12T09:24:02.866Z,1.83
2022-09-12T09:27:03.088Z,2.40
2022-09-12T09:29:42.385Z,1.83
2022-09-12T09:32:27.044Z,2.20
2022-09-12T09:34:54.262Z,2.77
2022-09-12T09:37:36.439Z,2.53
2022-09-12T09:40:35.705Z,2.40
2022-09-12T09:43:23.744Z,2.00
2022-09-12T09:45:52.994Z,1.90
2022-09-12T09:48:30.947Z,1.80
2022-09-12T09:51:03.584Z,2.10
2022-09-12T09:53:56.328Z,2.50
2022-09-12T09:56:40.249Z,1.70
2022-09-12T09:59:17.753Z,2.30
2022-09-12T10:01:59.987Z,2.00
2022-09-12T10:04:41.556Z,2.00
2022-09-12T10:07:21.662Z,2.80
2022-09-12T10:10:25.210Z,2.20
2022-09-12T10:13:16.646Z,2.30
2022-09-12T10:15:58.825Z,2.23
2022-09-12T10:18:42.777Z,1.90
2022-09-12T10:21:29.505Z,2.10
2022-09-12T10:24:48.698Z,2.10
2022-09-12T10:27:20.653Z,2.73
2022-09-12T10:29:54.570Z,2.30
2022-09-12T10:32:36.247Z,2.10
2022-09-12T10:35:25.474Z,2.00
2022-09-12T10:37:55.884Z,2.50
2022-09-12T10:40:31.583Z,2.20
2022-09-12T10:43:04.388Z,1.93
2022-09-12T10:45:35.891Z,1.47
2022-09-12T10:48:22.761Z,2.07
2022-09-12T10:50:49.632Z,1.40
2022-09-12T10:53:22.364Z,2.00
2022-09-12T10:56:07.391Z,1.37
2022-09-12T10:59:19.802Z,1.87
2022-09-12T11:01:53.150Z,2.17
2022-09-12T11:04:48.365Z,1.43
2022-09-12T11:07:38.246Z,2.10
2022-09-12T11:10:35.734Z,2.47
2022-09-12T11:13:32.630Z,1.73
2022-09-12T11:16:32.317Z,1.80
2022-09-12T11:19:38.411Z,1.40
2022-09-12T11:22:31.738Z,1.93
2022-09-12T11:25:10.746Z,1.50
2022-09-12T11:27:50.035Z,1.50
2022-09-12T11:30:18.792Z,1.37
2022-09-12T11:33:12.580Z,1.87
2022-09-12T11:35:51.886Z,2.07
2022-09-12T11:38:38.034Z,2.60
2022-09-12T11:41:07.933Z,1.70
2022-09-12T11:43:35.217Z,1.80
2022-09-12T11:46:22.887Z,1.33
2022-09-12T11:48:55.588Z,1.47
2022-09-12T11:51:53.300Z,1.60
2022-09-12T11:54:53.731Z,1.70
2022-09-12T11:57:33.880Z,1.57
2022-09-12T12:00:10.818Z,1.10
2022-09-12T12:02:44.538Z,1.67
2022-09-12T12:05:20.644Z,0.87
2022-09-12T12:08:01.037Z,1.60
2022-09-12T12:10:50.430Z,1.50
2022-09-12T12:13:25.478Z,1.30
2022-09-12T12:15:59.265Z,1.40
2022-09-12T12:18:32.629Z,1.60
2022-09-12T12:21:40.200Z,1.47
2022-09-12T12:24:10.101Z,1.33
2022-09-12T12:26:39.775Z,1.43
2022-09-12T12:29:18.443Z,1.40
2022-09-12T12:32:03.459Z,1.33
2022-09-12T12:34:41.838Z,1.60
2022-09-12T12:37:23.334Z,1.53
2022-09-12T12:39:51.101Z,1.03
2022-09-12T12:42:33.866Z,1.20
2022-09-12T12:45:09.567Z,0.90
2022-09-12T12:47:36.400Z,1.30
2022-09-12T12:50:08.513Z,1.47
2022-09-12T12:52:57.086Z,1.20
2022-09-12T12:55:31.216Z,1.17
2022-09-12T12:58:03.663Z,1.10
2022-09-12T13:00:40.240Z,1.07
2022-09-12T13:03:07.065Z,1.40
2022-09-12T13:05:46.470Z,1.50
2022-09-12T13:08:19.845Z,1.30
2022-09-12T13:10:58.350Z,1.27
2022-09-12T13:13:30.985Z,1.10
2022-09-12T13:15:58.700Z,1.30
2022-09-12T13:18:44.645Z,1.57
2022-09-12T13:21:21.550Z,1.40
2022-09-12T13:24:04.730Z,1.43
2022-09-12T13:26:43.856Z,1.70
2022-09-12T13:29:22.377Z,1.10
2022-09-12T13:31:57.115Z,1.23
2022-09-12T13:34:36.286Z,2.70
2022-09-12T13:37:34.270Z,1.40
2022-09-12T13:40:17.533Z,1.10
2022-09-12T13:43:12.020Z,1.03
2022-09-12T13:45:39.715Z,0.80
2022-09-12T13:48:16.785Z,1.07
2022-09-12T13:51:03.115Z,1.20
2022-09-12T13:53:45.014Z,1.07
2022-09-12T13:56:18.482Z,1.30
2022-09-12T13:58:57.875Z,1.07
2022-09-12T14:01:43.206Z,1.70
2022-09-12T14:04:44.220Z,0.97
2022-09-12T14:07:23.806Z,1.30
2022-09-12T14:09:59.904Z,1.20
2022-09-12T14:12:30.231Z,1.37
2022-09-12T14:14:57.832Z,1.40
2022-09-12T14:17:31.618Z,1.40
2022-09-12T14:20:08.852Z,1.27
2022-09-12T14:22:36.502Z,1.40
2022-09-12T14:25:03.945Z,1.30
2022-09-12T14:27:45.642Z,1.10
2022-09-12T14:30:34.836Z,1.37
2022-09-12T14:33:10.904Z,1.60
2022-09-12T14:35:47.721Z,1.03
2022-09-12T14:38:17.479Z,1.10
2022-09-12T14:40:52.983Z,1.10
2022-09-12T14:43:33.702Z,1.37
2022-09-12T14:46:17.051Z,1.23
2022-09-12T14:48:51.141Z,1.17
2022-09-12T14:51:51.470Z,1.37
2022-09-12T14:54:40.164Z,1.30
2022-09-12T14:57:45.144Z,1.43
2022-09-12T15:00:12.036Z,1.23
2022-09-12T15:02:40.549Z,1.70
2022-09-12T15:05:07.337Z,1.53
2022-09-12T15:07:42.283Z,1.10
2022-09-12T15:10:18.620Z,0.87
2022-09-12T15:12:45.493Z,1.23
2022-09-12T15:15:21.073Z,1.53
2022-09-12T15:17:47.965Z,1.50
2022-09-12T15:20:14.931Z,1.33
2022-09-12T15:22:42.376Z,1.27
2022-09-12T15:25:12.982Z,1.13
2022-09-12T15:27:42.718Z,1.30
2022-09-12T15:30:12.107Z,1.90
2022-09-12T15:32:42.438Z,1.20
2022-09-12T15:35:22.551Z,1.30
2022-09-12T15:37:50.196Z,1.30
2022-09-12T15:40:17.503Z,1.60
2022-09-12T15:42:44.597Z,1.20
2022-09-12T15:45:27.126Z,1.27
2022-09-12T15:47:55.000Z,1.47
2022-09-12T15:50:22.366Z,1.37
2022-09-12T15:52:49.451Z,1.60
2022-09-12T15:55:23.767Z,1.77
2022-09-12T15:57:51.042Z,1.87
2022-09-12T16:00:19.163Z,1.13
2022-09-12T16:02:50.137Z,1.50
2022-09-12T16:05:24.316Z,1.10
2022-09-12T16:07:53.985Z,1.20
2022-09-12T16:10:25.743Z,1.30
2022-09-12T16:12:52.901Z,1.20
2022-09-12T16:15:23.412Z,1.43
2022-09-12T16:17:50.839Z,1.60
2022-09-12T16:20:19.286Z,1.70
2022-09-12T16:22:46.560Z,1.50
2022-09-12T16:25:13.921Z,1.40
2022-09-12T16:27:41.326Z,1.50
2022-09-12T16:30:09.522Z,2.10
2022-09-12T16:32:36.989Z,1.80
2022-09-12T16:35:04.348Z,1.30
2022-09-12T16:37:32.213Z,1.20
2022-09-12T16:39:59.255Z,1.43
2022-09-12T16:42:26.248Z,1.93
2022-09-12T16:44:53.044Z,1.60
2022-09-12T16:47:19.910Z,1.63
2022-09-12T16:49:46.813Z,1.40
2022-09-12T16:52:16.478Z,1.40
2022-09-12T16:54:46.464Z,1.50
2022-09-12T16:57:13.400Z,1.60
2022-09-12T16:59:40.313Z,1.43
2022-09-12T17:02:12.175Z,1.50
2022-09-12T17:04:39.603Z,1.60
2022-09-12T17:07:06.933Z,1.57
2022-09-12T17:09:34.154Z,1.13
2022-09-12T17:12:01.207Z,1.47
2022-09-12T17:14:28.159Z,1.57
2022-09-12T17:16:55.086Z,1.40
2022-09-12T17:19:29.887Z,1.60
2022-09-12T17:21:57.804Z,1.43
2022-09-12T17:24:24.970Z,1.60
2022-09-12T17:26:53.390Z,1.67
2022-09-12T17:29:20.738Z,1.60
2022-09-12T17:31:48.117Z,2.10
2022-09-12T17:34:16.225Z,3.03
2022-09-12T17:36:44.486Z,4.13
2022-09-12T17:39:13.547Z,2.47
2022-09-12T17:41:45.736Z,1.43
2022-09-12T17:44:15.080Z,1.80
2022-09-12T17:46:43.098Z,1.90
2022-09-12T17:49:16.277Z,2.20
2022-09-12T17:51:43.893Z,2.50
2022-09-12T17:54:15.650Z,2.33
2022-09-12T17:56:44.282Z,12.47
2022-09-12T17:59:17.293Z,3.60
2022-09-12T18:02:02.684Z,3.07
2022-09-12T18:04:30.034Z,4.47
2022-09-12T18:06:57.739Z,2.53
2022-09-12T18:09:28.192Z,2.40
2022-09-12T18:11:55.526Z,2.00
2022-09-12T18:14:23.619Z,2.10
2022-09-12T18:16:50.730Z,2.40
2022-09-12T18:19:18.388Z,10.00
2022-09-12T18:21:45.373Z,2.70
2022-09-12T18:24:12.766Z,1.90
2022-09-12T18:26:40.034Z,2.30
2022-09-12T18:29:07.683Z,4.47
2022-09-12T18:31:34.735Z,2.90
2022-09-12T18:34:02.551Z,2.73
2022-09-12T18:36:30.615Z,3.60
2022-09-12T18:38:59.173Z,5.43
2022-09-12T18:41:28.745Z,2.30
2022-09-12T18:43:59.649Z,2.70
2022-09-12T18:46:29.168Z,2.17
2022-09-12T18:48:59.799Z,1.77
2022-09-12T18:51:34.843Z,2.70
2022-09-12T18:54:08.723Z,1.80
2022-09-12T18:56:38.232Z,2.00
2022-09-12T18:59:06.824Z,2.90
2022-09-12T19:01:36.547Z,3.43
2022-09-12T19:04:04.946Z,3.60
2022-09-12T19:06:36.889Z,2.30
2022-09-12T19:09:07.966Z,2.07
2022-09-12T19:11:38.333Z,2.70
2022-09-12T19:14:06.759Z,2.40
2022-09-12T19:16:34.664Z,2.53
2022-09-12T19:19:02.570Z,2.57
2022-09-12T19:21:32.056Z,2.33
2022-09-12T19:24:03.491Z,2.70
2022-09-12T19:26:30.525Z,2.80
2022-09-12T19:28:58.477Z,2.33
2022-09-12T19:31:26.067Z,2.00
2022-09-12T19:33:53.099Z,1.87
2022-09-12T19:36:43.974Z,1.97
2022-09-12T19:39:09.946Z,2.50
2022-09-12T19:41:37.025Z,2.10
2022-09-12T19:44:05.141Z,2.77
2022-09-12T19:46:32.209Z,1.70
2022-09-12T19:48:59.312Z,2.20
2022-09-12T19:51:26.414Z,2.10
2022-09-12T19:53:53.918Z,1.87
2022-09-12T19:56:21.093Z,1.87
2022-09-12T19:58:55.296Z,1.83
2022-09-12T20:01:29.911Z,2.40
2022-09-12T20:03:58.368Z,4.07
2022-09-12T20:06:26.215Z,4.40
2022-09-12T20:08:53.504Z,2.27
2022-09-12T20:11:23.612Z,2.97
2022-09-12T20:13:51.602Z,3.10
2022-09-12T20:16:22.131Z,2.53
2022-09-12T20:19:08.335Z,2.63
2022-09-12T20:21:36.694Z,3.97
2022-09-12T20:24:10.109Z,2.43
2022-09-12T20:26:37.789Z,3.53
2022-09-12T20:29:06.809Z,3.33
2022-09-12T20:31:35.537Z,2.70
2022-09-12T20:34:03.163Z,4.00
2022-09-12T20:36:30.442Z,3.00
2022-09-12T20:39:01.029Z,3.03
2022-09-12T20:41:31.207Z,2.30
2022-09-12T20:43:58.322Z,4.17
2022-09-12T20:46:26.913Z,4.00
2022-09-12T20:48:54.799Z,2.50
2022-09-12T20:51:22.766Z,2.60
2022-09-12T20:53:54.552Z,1.97
2022-09-12T20:56:22.718Z,4.63
2022-09-12T20:58:50.065Z,8.00
2022-09-12T21:01:17.270Z,2.73
2022-09-12T21:03:45.047Z,3.43
2022-09-12T21:06:16.939Z,2.20
2022-09-12T21:08:45.377Z,2.77
2022-09-12T21:11:12.542Z,2.70
2022-09-12T21:13:39.693Z,2.90
2022-09-12T21:16:10.062Z,2.40
2022-09-12T21:18:37.900Z,3.00
2022-09-12T21:21:05.596Z,2.93
2022-09-12T21:23:33.649Z,4.93
2022-09-12T21:26:01.767Z,3.67
2022-09-12T21:28:29.129Z,4.37
2022-09-12T21:30:56.517Z,4.03
2022-09-12T21:33:24.388Z,2.27
2022-09-12T21:35:51.272Z,3.00
2022-09-12T21:38:19.679Z,3.03
2022-09-12T21:40:47.601Z,2.47
2022-09-12T21:43:14.938Z,3.00
2022-09-12T21:45:42.216Z,2.63
2022-09-12T21:48:09.451Z,2.60
2022-09-12T21:50:36.320Z,3.17
2022-09-12T21:53:03.552Z,4.80
2022-09-12T21:55:31.127Z,3.00
2022-09-12T21:57:58.060Z,2.93
2022-09-12T22:00:25.114Z,2.53
2022-09-12T22:02:53.162Z,2.63
2022-09-12T22:05:21.238Z,3.50
2022-09-12T22:07:48.165Z,3.37
2022-09-12T22:10:15.207Z,3.33
2022-09-12T22:12:46.131Z,4.10
2022-09-12T22:15:38.767Z,2.40
2022-09-12T22:18:02.008Z,3.90
2022-09-12T22:20:28.903Z,3.10
2022-09-12T22:23:14.115Z,2.83
2022-09-12T22:25:41.526Z,3.13
2022-09-12T22:28:08.481Z,3.67
2022-09-12T22:30:35.505Z,2.40
2022-09-12T22:33:02.416Z,3.20
2022-09-12T22:35:29.382Z,3.00
2022-09-12T22:37:56.252Z,3.30
2022-09-12T22:40:23.340Z,2.60
2022-09-12T22:42:52.909Z,3.43
2022-09-12T22:45:19.902Z,2.97
2022-09-12T22:47:47.244Z,2.17
2022-09-12T22:50:14.461Z,2.70
2022-09-12T22:52:41.598Z,2.63
2022-09-12T22:55:09.852Z,2.23
2022-09-12T22:57:37.422Z,3.90
2022-09-12T23:00:10.609Z,3.73
2022-09-12T23:02:38.097Z,2.27
2022-09-12T23:05:06.043Z,4.00
2022-09-12T23:07:33.536Z,3.40
2022-09-12T23:10:01.002Z,3.10
2022-09-12T23:12:27.954Z,3.17
2022-09-12T23:14:54.884Z,3.80
2022-09-12T23:17:21.749Z,3.07
2022-09-12T23:19:48.656Z,3.37
2022-09-12T23:22:15.600Z,3.70
2022-09-12T23:24:42.474Z,3.07
2022-09-12T23:27:09.509Z,3.77
2022-09-12T23:29:36.469Z,3.47
2022-09-12T23:32:06.752Z,3.67
2022-09-12T23:34:33.911Z,2.90
2022-09-12T23:37:00.777Z,4.13
2022-09-12T23:39:27.937Z,3.10
2022-09-12T23:41:55.476Z,3.23
2022-09-12T23:44:22.352Z,3.50
2022-09-12T23:46:49.228Z,3.50
2022-09-12T23:49:16.123Z,3.50
2022-09-12T23:51:42.977Z,3.80
2022-09-12T23:54:09.859Z,3.27
2022-09-12T23:56:37.110Z,3.03
2022-09-12T23:59:04.918Z,3.50
